地図

経路データ

SID SEASON NUMBER BASIN SUBBASIN NAME ISO_TIME NATURE LAT LON WMO_WIND WMO_PRES WMO_AGENCY TRACK_TYPE DIST2LAND LANDFALL IFLAG USA_AGENCY USA_ATCF_ID USA_LAT USA_LON USA_RECORD USA_STATUS USA_WIND USA_PRES USA_SSHS USA_R34_NE USA_R34_SE USA_R34_SW USA_R34_NW USA_R50_NE USA_R50_SE USA_R50_SW USA_R50_NW USA_R64_NE USA_R64_SE USA_R64_SW USA_R64_NW USA_POCI USA_ROCI USA_RMW USA_EYE TOKYO_LAT TOKYO_LON TOKYO_GRADE TOKYO_WIND TOKYO_PRES TOKYO_R50_DIR TOKYO_R50_LONG TOKYO_R50_SHORT TOKYO_R30_DIR TOKYO_R30_LONG TOKYO_R30_SHORT TOKYO_LAND CMA_LAT CMA_LON CMA_CAT CMA_WIND CMA_PRES HKO_LAT HKO_LON HKO_CAT HKO_WIND HKO_PRES NEWDELHI_LAT NEWDELHI_LON NEWDELHI_GRADE NEWDELHI_WIND NEWDELHI_PRES NEWDELHI_CI NEWDELHI_DP NEWDELHI_POCI REUNION_LAT REUNION_LON REUNION_TYPE REUNION_WIND REUNION_PRES REUNION_TNUM REUNION_CI REUNION_RMW REUNION_R34_NE REUNION_R34_SE REUNION_R34_SW REUNION_R34_NW REUNION_R50_NE REUNION_R50_SE REUNION_R50_SW REUNION_R50_NW REUNION_R64_NE REUNION_R64_SE REUNION_R64_SW REUNION_R64_NW BOM_LAT BOM_LON BOM_TYPE BOM_WIND BOM_PRES BOM_TNUM BOM_CI BOM_RMW BOM_R34_NE BOM_R34_SE BOM_R34_SW BOM_R34_NW BOM_R50_NE BOM_R50_SE BOM_R50_SW BOM_R50_NW BOM_R64_NE BOM_R64_SE BOM_R64_SW BOM_R64_NW BOM_ROCI BOM_POCI BOM_EYE BOM_POS_METHOD BOM_PRES_METHOD NADI_LAT NADI_LON NADI_CAT NADI_WIND NADI_PRES WELLINGTON_LAT WELLINGTON_LON WELLINGTON_WIND WELLINGTON_PRES DS824_LAT DS824_LON DS824_STAGE DS824_WIND DS824_PRES TD9636_LAT TD9636_LON TD9636_STAGE TD9636_WIND TD9636_PRES TD9635_LAT TD9635_LON TD9635_WIND TD9635_PRES TD9635_ROCI NEUMANN_LAT NEUMANN_LON NEUMANN_CLASS NEUMANN_WIND NEUMANN_PRES MLC_LAT MLC_LON MLC_CLASS MLC_WIND MLC_PRES USA_GUST BOM_GUST BOM_GUST_PER REUNION_GUST REUNION_GUST_PER USA_SEAHGT USA_SEARAD_NE USA_SEARAD_SE USA_SEARAD_SW USA_SEARAD_NW STORM_SPEED STORM_DIR
1885011S16075 1885 2 SI MM NOT_NAMED 1885-01-11 00:00:00 TS -15.9000 75.2000 main 1902 1858 _________O____ -1 -15.9000 75.2000 TC 8 255
1885011S16075 1885 2 SI MM NOT_NAMED 1885-01-11 03:00:00 TS -16.0026 74.8026 main 1858 1814 _________P____ -1 -16.0026 74.8026 TC 8 255
1885011S16075 1885 2 SI MM NOT_NAMED 1885-01-11 06:00:00 TS -16.1000 74.4000 main 1814 1770 _________O____ -1 -16.1000 74.4000 TC 8 256
1885011S16075 1885 2 SI MM NOT_NAMED 1885-01-11 09:00:00 TS -16.1925 73.9924 main 1770 1726 _________P____ -1 -16.1925 73.9924 TC 8 255
1885011S16075 1885 2 SI MM NOT_NAMED 1885-01-11 12:00:00 TS -16.3000 73.6000 main 1726 1692 _________O____ -1 -16.3000 73.6000 TC 8 251
1885011S16075 1885 2 SI MM NOT_NAMED 1885-01-11 15:00:00 TS -16.4424 73.2350 main 1682 1644 _________P____ -1 -16.4424 73.2350 TC 7 246
1885011S16075 1885 2 SI MM NOT_NAMED 1885-01-11 18:00:00 TS -16.6000 72.9000 main 1644 1611 _________O____ -1 -16.6000 72.9000 TC 7 242
1885011S16075 1885 2 SI MM NOT_NAMED 1885-01-11 21:00:00 TS -16.7573 72.6074 main 1607 1574 _________P____ -1 -16.7573 72.6074 TC 6 242
1885011S16075 1885 2 SI MM NOT_NAMED 1885-01-12 00:00:00 TS -16.9000 72.3000 main 1574 1530 _________O____ -1 -16.9000 72.3000 TC 7 250
1885011S16075 1885 2 SI MM NOT_NAMED 1885-01-12 03:00:00 TS -17.0000 71.9074 main 1530 1486 _________P____ -1 -17.0000 71.9074 TC 8 255
1885011S16075 1885 2 SI MM NOT_NAMED 1885-01-12 06:00:00 TS -17.1000 71.5000 main 1486 1452 _________O____ -1 -17.1000 71.5000 TC 8 252
1885011S16075 1885 2 SI MM NOT_NAMED 1885-01-12 09:00:00 TS -17.2424 71.1500 main 1442 1405 _________P____ -1 -17.2424 71.1500 TC 7 246
1885011S16075 1885 2 SI MM NOT_NAMED 1885-01-12 12:00:00 TS -17.4000 70.8000 main 1405 1361 _________O____ -1 -17.4000 70.8000 TC 8 247
1885011S16075 1885 2 SI MM NOT_NAMED 1885-01-12 15:00:00 TS -17.5425 70.3999 main 1361 1314 _________P____ -1 -17.5425 70.3999 TC 8 249
1885011S16075 1885 2 SI MM NOT_NAMED 1885-01-12 18:00:00 TS -17.7000 70.0000 main 1314 1278 _________O____ -1 -17.7000 70.0000 TC 8 243
1885011S16075 1885 2 SI MM NOT_NAMED 1885-01-12 21:00:00 TS -17.8999 69.6500 main 1268 1232 _________P____ -1 -17.8999 69.6500 TC 8 239
1885011S16075 1885 2 SI MM NOT_NAMED 1885-01-13 00:00:00 TS -18.1000 69.3000 main 1232 1188 _________O____ -1 -18.1000 69.3000 TC 8 243
1885011S16075 1885 2 SI MM NOT_NAMED 1885-01-13 03:00:00 TS -18.2575 68.9074 main 1185 1142 _________P____ -1 -18.2575 68.9074 TC 8 248
1885011S16075 1885 2 SI MM NOT_NAMED 1885-01-13 06:00:00 TS -18.4000 68.5000 main 1142 1098 _________O____ -1 -18.4000 68.5000 TC 8 250
1885011S16075 1885 2 SI MM NOT_NAMED 1885-01-13 09:00:00 TS -18.5349 68.0998 main 1098 1052 _________P____ -1 -18.5349 68.0998 TC 8 248
1885011S16075 1885 2 SI MM NOT_NAMED 1885-01-13 12:00:00 TS -18.7000 67.7000 main 1052 1007 _________O____ -1 -18.7000 67.7000 TC 9 242
1885011S16075 1885 2 SI MM NOT_NAMED 1885-01-13 15:00:00 TS -18.9424 67.3075 main 1007 960 _________P____ -1 -18.9424 67.3075 TC 9 237
1885011S16075 1885 2 SI MM NOT_NAMED 1885-01-13 18:00:00 TS -19.2000 66.9000 main 960 915 _________O____ -1 -19.2000 66.9000 TC 10 240
1885011S16075 1885 2 SI MM NOT_NAMED 1885-01-13 21:00:00 TS -19.4226 66.4276 main 904 860 _________P____ -1 -19.4226 66.4276 TC 9 245
1885011S16075 1885 2 SI MM NOT_NAMED 1885-01-14 00:00:00 TS -19.6000 66.0000 main 860 828 _________O____ -1 -19.6000 66.0000 TC 7 246
1885011S16075 1885 2 SI MM NOT_NAMED 1885-01-14 03:00:00 TS -19.7148 65.7198 main 828 806 _________P____ -1 -19.7148 65.7198 TC 5 247
1885011S16075 1885 2 SI MM NOT_NAMED 1885-01-14 06:00:00 TS -19.8000 65.5000 main 806 784 _________O____ -1 -19.8000 65.5000 TC 5 247
1885011S16075 1885 2 SI MM NOT_NAMED 1885-01-14 09:00:00 TS -19.9000 65.2500 main 773 752 _________P____ -1 -19.9000 65.2500 TC 5 247
1885011S16075 1885 2 SI MM NOT_NAMED 1885-01-14 12:00:00 TS -20.0000 65.0000 main 752 730 _________O____ -1 -20.0000 65.0000 TC 5 247
1885011S16075 1885 2 SI MM NOT_NAMED 1885-01-14 15:00:00 TS -20.1000 64.7500 main 720 698 _________P____ -1 -20.1000 64.7500 TC 5 247
1885011S16075 1885 2 SI MM NOT_NAMED 1885-01-14 18:00:00 TS -20.2000 64.5000 main 698 677 _________O____ -1 -20.2000 64.5000 TC 5 247
1885011S16075 1885 2 SI MM NOT_NAMED 1885-01-14 21:00:00 TS -20.2923 64.2724 main 677 646 _________P____ -1 -20.2923 64.2724 TC 5 247
1885011S16075 1885 2 SI MM NOT_NAMED 1885-01-15 00:00:00 TS -20.4000 64.0000 main 646 604 _________O____ -1 -20.4000 64.0000 TC 7 249
1885011S16075 1885 2 SI MM NOT_NAMED 1885-01-15 03:00:00 TS -20.5351 63.6150 main 604 564 _________P____ -1 -20.5351 63.6150 TC 8 248
1885011S16075 1885 2 SI MM NOT_NAMED 1885-01-15 06:00:00 TS -20.7000 63.2000 main 564 533 _________O____ -1 -20.7000 63.2000 TC 8 243
1885011S16075 1885 2 SI MM NOT_NAMED 1885-01-15 09:00:00 TS -20.8923 62.8499 main 524 496 _________P____ -1 -20.8923 62.8499 TC 8 239
1885011S16075 1885 2 SI MM NOT_NAMED 1885-01-15 12:00:00 TS -21.1000 62.5000 main 496 460 _________O____ -1 -21.1000 62.5000 TC 8 240
1885011S16075 1885 2 SI MM NOT_NAMED 1885-01-15 15:00:00 TS -21.3000 62.1074 main 460 426 _________P____ -1 -21.3000 62.1074 TC 8 242
1885011S16075 1885 2 SI MM NOT_NAMED 1885-01-15 18:00:00 TS -21.5000 61.7000 main 426 395 _________O____ -1 -21.5000 61.7000 TC 9 242
1885011S16075 1885 2 SI MM NOT_NAMED 1885-01-15 21:00:00 TS -21.6999 61.2999 main 395 366 _________P____ -1 -21.6999 61.2999 TC 8 242
1885011S16075 1885 2 SI MM NOT_NAMED 1885-01-16 00:00:00 TS -21.9000 60.9000 main 366 340 _________O____ -1 -21.9000 60.9000 TC 8 241
1885011S16075 1885 2 SI MM NOT_NAMED 1885-01-16 03:00:00 TS -22.1074 60.5000 main 340 319 _________P____ -1 -22.1074 60.5000 TC 8 242
1885011S16075 1885 2 SI MM NOT_NAMED 1885-01-16 06:00:00 TS -22.3000 60.1000 main 319 296 _________O____ -1 -22.3000 60.1000 TC 8 245
1885011S16075 1885 2 SI MM NOT_NAMED 1885-01-16 09:00:00 TS -22.4574 59.6998 main 304 287 _________P____ -1 -22.4574 59.6998 TC 8 248
1885011S16075 1885 2 SI MM NOT_NAMED 1885-01-16 12:00:00 TS -22.6000 59.3000 main 287 275 _________O____ -1 -22.6000 59.3000 TC 8 249
1885011S16075 1885 2 SI MM NOT_NAMED 1885-01-16 15:00:00 TS -22.7424 58.8998 main 275 273 _________P____ -1 -22.7424 58.8998 TC 8 248
1885011S16075 1885 2 SI MM NOT_NAMED 1885-01-16 18:00:00 TS -22.9000 58.5000 main 280 277 _________O____ -1 -22.9000 58.5000 TC 8 244
1885011S16075 1885 2 SI MM NOT_NAMED 1885-01-16 21:00:00 TS -23.0923 58.1074 main 293 292 _________P____ -1 -23.0923 58.1074 TC 8 241
1885011S16075 1885 2 SI MM NOT_NAMED 1885-01-17 00:00:00 TS -23.3000 57.7000 main 296 286 _________O____ -1 -23.3000 57.7000 TC 9 243
1885011S16075 1885 2 SI MM NOT_NAMED 1885-01-17 03:00:00 TS -23.4925 57.2499 main 284 279 _________P____ -1 -23.4925 57.2499 TC 9 244
1885011S16075 1885 2 SI MM NOT_NAMED 1885-01-17 06:00:00 TS -23.7000 56.8000 main 285 280 _________O____ -1 -23.7000 56.8000 TC 9 240
1885011S16075 1885 2 SI MM NOT_NAMED 1885-01-17 09:00:00 TS -23.9499 56.3850 main 291 291 _________P____ -1 -23.9499 56.3850 TC 9 236
1885011S16075 1885 2 SI MM NOT_NAMED 1885-01-17 12:00:00 TS -24.2000 56.0000 main 315 314 _________O____ -1 -24.2000 56.0000 TC 8 236
1885011S16075 1885 2 SI MM NOT_NAMED 1885-01-17 15:00:00 TS -24.4074 55.6423 main 335 335 _________P____ -1 -24.4074 55.6423 TC 8 238
1885011S16075 1885 2 SI MM NOT_NAMED 1885-01-17 18:00:00 TS -24.6000 55.3000 main 359 359 _________O____ -1 -24.6000 55.3000 TC 7 238
1885011S16075 1885 2 SI MM NOT_NAMED 1885-01-17 21:00:00 TS -24.7977 54.9528 main 384 384 _________P____ -1 -24.7977 54.9528 TC 8 238
1885011S16075 1885 2 SI MM NOT_NAMED 1885-01-18 00:00:00 TS -25.0000 54.6000 main 415 _________O____ -1 -25.0000 54.6000 TC 8 238

IBTrACS Databaseについて

本データベースは、米国NOAAが公開する1842年以降の世界の熱帯低気圧のベストトラックデータアーカイブInternational Best Track Archive for Climate Stewardship (IBTrACS)を、ウェブで閲覧しやすい形式に変換したものです。

最終更新日:2021-11-26